.
WxDataArchive / Data Records for 2007-08-24
2007-08-23 August 2007 2007-08-25

Data Records for Friday, 24 August 2007

Time	Temp	Chill	HIndex	Humid	Dewpt	 Wind 	HiWind	WindDir	Rain 	Barom 
-----	----	-----	------	-----	-----	------	------	-------	-----	----- 
00:00	71.3	71.3	71.3	87	67.2	0	1	270	0.00	29.878 
00:05	71.1	71.1	71.1	87	67.0	0	0	---	0.00	29.863 
00:10	71.1	71.1	71.1	86	66.7	0	0	---	0.00	29.853 
00:15	70.9	70.9	70.9	86	66.5	0	0	---	0.00	29.850 
00:20	70.9	70.9	70.9	86	66.5	0	0	---	0.00	29.846 
00:25	70.8	70.8	70.8	86	66.4	0	0	---	0.00	29.841 
00:30	70.6	70.6	70.6	86	66.2	0	0	---	0.00	29.835 
00:35	70.6	70.6	70.6	87	66.5	0	0	---	0.00	29.827 
00:40	70.4	70.4	70.4	87	66.3	0	0	---	0.00	29.820 
00:45	70.3	70.3	70.3	88	66.6	0	0	---	0.00	29.821 
00:50	70.3	70.3	70.3	88	66.6	0	0	---	0.00	29.823 
00:55	70.1	70.1	70.1	89	66.7	0	0	---	0.00	29.824 
01:00	70.1	70.1	70.1	90	67.0	0	1	270	0.00	29.820 
01:05	70.1	70.1	70.1	90	67.0	0	1	270	0.00	29.820 
01:10	69.9	69.9	69.9	90	66.8	0	1	270	0.00	29.810 
01:15	69.9	69.9	69.9	89	66.5	1	3	90	0.00	29.805 
01:20	69.9	69.9	69.9	89	66.5	1	4	90	0.00	29.801 
01:25	70.1	70.1	70.1	89	66.7	1	5	112	0.00	29.790 
01:30	70.1	70.1	70.1	88	66.4	1	3	135	0.00	29.788 
01:35	70.1	70.1	70.1	88	66.4	1	3	90	0.00	29.790 
01:40	70.1	70.1	70.1	88	66.4	0	1	90	0.00	29.802 
01:45	69.9	69.9	69.9	88	66.2	0	2	292	0.00	29.802 
01:50	69.9	69.9	69.9	88	66.2	0	1	292	0.00	29.804 
01:55	69.8	69.8	69.8	88	66.1	0	0	---	0.00	29.801 
02:00	69.8	69.8	69.8	89	66.4	0	1	292	0.00	29.794 
02:05	69.6	69.6	69.6	88	65.9	0	1	292	0.00	29.795 
02:10	69.6	69.6	69.6	88	65.9	0	1	292	0.00	29.801 
02:15	69.6	69.6	69.6	88	65.9	0	1	292	0.00	29.801 
02:20	69.4	69.4	69.4	88	65.7	0	1	292	0.00	29.804 
02:25	69.4	69.4	69.4	88	65.7	0	0	---	0.00	29.804 
02:30	69.4	69.4	69.4	89	66.0	0	1	292	0.00	29.806 
02:35	69.3	69.3	69.3	89	65.9	0	1	292	0.00	29.809 
02:40	69.1	69.1	69.1	89	65.7	0	0	---	0.00	29.809 
02:45	69.1	69.1	69.1	90	66.0	0	1	292	0.00	29.813 
02:50	68.9	68.9	68.9	90	65.8	0	0	---	0.00	29.809 
02:55	68.8	68.8	68.8	90	65.7	0	0	---	0.00	29.812 
03:00	68.8	68.8	68.8	90	65.7	0	0	---	0.00	29.812 
03:05	68.6	68.6	68.6	91	65.9	0	0	---	0.00	29.810 
03:10	68.4	68.4	68.4	91	65.7	0	0	---	0.00	29.809 
03:15	68.4	68.4	68.4	91	65.7	0	1	292	0.00	29.811 
03:20	68.6	68.6	68.6	91	65.9	0	0	---	0.00	29.810 
03:25	68.6	68.6	68.6	91	65.9	0	1	292	0.00	29.809 
03:30	68.6	68.6	68.6	91	65.9	0	0	---	0.00	29.812 
03:35	68.9	68.9	68.9	92	66.5	1	6	292	0.00	29.841 
03:40	69.3	69.3	69.3	90	66.2	1	4	248	0.00	29.840 
03:45	69.6	69.6	69.6	88	65.9	1	3	248	0.00	29.831 
03:50	69.8	69.8	69.8	87	65.7	1	3	315	0.00	29.832 
03:55	69.9	69.9	69.9	86	65.5	1	3	292	0.00	29.834 
04:00	70.1	70.1	70.1	86	65.7	0	1	315	0.00	29.831 
04:05	70.1	70.1	70.1	85	65.4	0	1	315	0.00	29.833 
04:10	69.9	69.9	69.9	85	65.2	0	1	315	0.00	29.831 
04:15	69.9	69.9	69.9	85	65.2	0	1	315	0.00	29.822 
04:20	69.8	69.8	69.8	86	65.4	0	0	---	0.00	29.818 
04:25	69.6	69.6	69.6	85	64.9	0	0	---	0.00	29.819 
04:30	69.4	69.4	69.4	86	65.0	0	0	---	0.00	29.820 
04:35	69.3	69.3	69.3	86	64.9	0	0	---	0.00	29.819 
04:40	69.3	69.3	69.3	87	65.3	0	0	---	0.00	29.821 
04:45	69.1	69.1	69.1	87	65.1	0	0	---	0.00	29.821 
04:50	69.1	69.1	69.1	88	65.4	0	0	---	0.00	29.821 
04:55	68.9	68.9	68.9	88	65.2	0	1	315	0.00	29.822 
05:00	69.1	69.1	69.1	88	65.4	0	1	315	0.00	29.822 
05:05	68.9	68.9	68.9	88	65.2	0	1	315	0.00	29.822 
05:10	68.9	68.9	68.9	88	65.2	0	0	---	0.00	29.821 
05:15	68.9	68.9	68.9	88	65.2	0	1	315	0.00	29.829 
05:20	68.9	68.9	68.9	88	65.2	0	1	315	0.00	29.822 
05:25	68.9	68.9	68.9	88	65.2	0	1	315	0.00	29.822 
05:30	68.9	68.9	68.9	88	65.2	0	0	---	0.00	29.820 
05:35	68.9	68.9	68.9	88	65.2	0	0	---	0.00	29.818 
05:40	68.9	68.9	68.9	88	65.2	0	1	315	0.00	29.817 
05:45	68.9	68.9	68.9	89	65.5	0	1	315	0.00	29.820 
05:50	69.1	69.1	69.1	89	65.7	0	1	315	0.00	29.823 
05:55	69.1	69.1	69.1	89	65.7	0	0	---	0.00	29.823 
06:00	69.1	69.1	69.1	89	65.7	0	1	315	0.00	29.822 
06:05	69.3	69.3	69.3	89	65.9	0	0	---	0.00	29.823 
06:10	69.3	69.3	69.3	89	65.9	0	1	315	0.00	29.823 
06:15	69.3	69.3	69.3	89	65.9	0	3	315	0.00	29.825 
06:20	69.4	69.4	69.4	89	66.0	0	2	248	0.00	29.827 
06:25	69.6	69.6	69.6	89	66.2	0	1	248	0.00	29.822 
06:30	69.6	69.6	69.6	88	65.9	1	2	248	0.00	29.835 
06:35	69.8	69.8	69.8	88	66.1	0	2	248	0.00	29.828 
06:40	69.9	69.9	69.9	88	66.2	0	2	248	0.00	29.824 
06:45	70.1	70.1	70.1	88	66.4	0	1	248	0.00	29.829 
06:50	70.3	70.3	70.3	87	66.2	0	2	248	0.00	29.836 
06:55	70.3	70.3	70.3	87	66.2	0	1	248	0.00	29.834 
07:00	70.4	70.4	70.4	87	66.3	0	2	248	0.00	29.837 
07:05	70.6	70.6	70.6	87	66.5	0	1	248	0.00	29.843 
07:10	70.8	70.8	70.8	87	66.7	0	1	248	0.00	29.849 
07:15	70.9	70.9	70.9	87	66.8	0	1	248	0.00	29.849 
07:20	70.9	70.9	70.9	86	66.5	0	1	248	0.00	29.840 
07:25	71.1	71.1	71.1	87	67.0	0	0	---	0.00	29.840 
07:30	71.3	71.3	71.3	87	67.2	0	1	248	0.00	29.840 
07:35	71.5	71.5	71.5	86	67.1	0	1	248	0.00	29.836 
07:40	71.6	71.6	71.6	86	67.2	0	1	248	0.00	29.831 
07:45	71.8	71.8	71.8	87	67.7	0	1	248	0.00	29.827 
07:50	71.8	71.8	71.8	86	67.4	0	2	248	0.00	29.827 
07:55	71.8	71.8	71.8	86	67.4	0	2	248	0.00	29.822 
08:00	72.0	72.0	72.0	85	67.2	0	2	225	0.00	29.821 
08:05	72.0	72.0	72.0	85	67.2	0	2	225	0.00	29.820 
08:10	71.8	71.8	71.8	86	67.4	1	2	68	0.00	29.817 
08:15	71.8	71.8	71.8	86	67.4	0	1	68	0.00	29.813 
08:20	72.0	72.0	72.0	85	67.2	1	3	68	0.00	29.810 
08:25	72.5	72.5	72.5	84	67.4	1	5	90	0.00	29.810 
08:30	73.3	73.3	73.3	83	67.8	1	3	90	0.00	29.806 
08:35	73.7	73.7	73.7	82	67.9	1	3	112	0.00	29.806 
08:40	73.9	73.9	73.9	81	67.7	1	4	112	0.00	29.807 
08:45	74.4	74.4	74.4	81	68.2	1	4	90	0.00	29.807 
08:50	75.3	75.3	75.9	81	69.1	1	2	90	0.00	29.805 
08:55	76.3	76.3	77.6	77	68.5	1	3	90	0.00	29.805 
09:00	76.8	76.8	78.4	77	69.0	0	2	68	0.00	29.803 
09:05	77.2	77.2	79.0	74	68.3	0	3	68	0.00	29.807 
09:10	77.7	77.7	79.7	74	68.7	1	3	68	0.00	29.808 
09:15	78.5	78.5	80.9	73	69.1	1	4	270	0.00	29.808 
09:20	78.6	78.6	80.8	70	68.0	2	6	248	0.00	29.808 
09:25	78.5	78.5	80.9	73	69.1	1	7	248	0.00	29.808 
09:30	79.0	79.0	81.6	72	69.2	1	5	248	0.00	29.807 
09:35	79.6	79.6	82.2	69	68.5	1	5	248	0.00	29.806 
09:40	80.1	80.1	83.0	69	69.0	2	6	248	0.00	29.807 
09:45	80.5	80.5	83.3	67	68.5	2	5	68	0.00	29.805 
09:50	81.2	81.2	84.5	67	69.2	1	5	68	0.00	29.804 
09:55	81.6	81.6	85.1	67	69.6	1	3	270	0.00	29.804 
10:00	81.8	81.8	85.1	65	68.9	2	7	90	0.00	29.803 
10:05	82.2	82.2	86.1	67	70.1	1	3	45	0.00	29.807 
10:10	82.8	82.8	87.0	66	70.3	1	4	90	0.00	29.806 
10:15	82.8	82.8	86.5	64	69.3	2	10	270	0.00	29.803 
10:20	82.8	82.8	87.2	67	70.7	2	6	248	0.00	29.800 
10:25	83.2	83.2	87.5	65	70.2	1	4	0	0.00	29.796 
10:30	83.4	83.4	87.8	65	70.4	2	5	248	0.00	29.797 
10:35	83.6	83.6	88.2	65	70.6	1	4	270	0.00	29.794 
10:40	83.6	83.6	87.9	64	70.1	2	5	248	0.00	29.795 
10:45	83.8	83.8	88.6	65	70.7	1	4	270	0.00	29.796 
10:50	84.3	84.3	89.2	64	70.8	1	3	22	0.00	29.794 
10:55	85.1	85.1	90.4	63	71.1	1	5	68	0.00	29.791 
11:00	85.1	85.1	89.8	61	70.1	2	7	270	0.00	29.791 
11:05	85.1	85.1	90.1	62	70.6	2	5	270	0.00	29.790 
11:10	85.1	85.1	89.8	61	70.1	3	6	270	0.00	29.791 
11:15	85.1	85.1	90.4	63	71.1	2	5	270	0.00	29.791 
11:20	85.5	85.5	90.8	62	71.0	2	6	248	0.00	29.789 
11:25	85.5	85.5	90.8	62	71.0	2	4	270	0.00	29.790 
11:30	85.9	85.9	90.9	60	70.4	3	7	270	0.00	29.790 
11:35	86.1	86.1	91.7	61	71.0	2	5	270	0.00	29.790 
11:40	86.3	86.3	92.1	61	71.2	2	7	248	0.00	29.789 
11:45	86.5	86.5	93.3	63	72.4	3	11	248	0.00	29.787 
11:50	86.5	86.5	92.1	60	70.9	3	7	248	0.00	29.787 
11:55	86.5	86.5	92.5	61	71.4	1	4	270	0.00	29.786 
12:00	86.5	86.5	92.1	60	70.9	2	5	270	0.00	29.782 
12:05	86.5	86.5	92.5	61	71.4	2	5	248	0.00	29.785 
12:10	86.7	86.7	93.3	62	72.1	1	5	270	0.00	29.780 
12:15	87.0	87.0	93.9	62	72.4	2	5	270	0.00	29.775 
12:20	87.6	87.6	95.2	62	72.9	1	6	270	0.00	29.773 
12:25	88.2	88.2	96.5	62	73.5	1	4	315	0.00	29.770 
12:30	89.0	89.0	97.9	61	73.8	1	5	270	0.00	29.772 
12:35	89.3	89.3	96.5	57	72.0	3	6	270	0.00	29.771 
12:40	88.4	88.4	94.6	57	71.2	2	6	270	0.00	29.773 
12:45	87.6	87.6	93.9	59	71.5	2	5	270	0.00	29.773 
12:50	87.4	87.4	93.0	58	70.8	1	3	248	0.00	29.775 
12:55	87.4	87.4	93.5	59	71.3	1	4	270	0.00	29.774 
13:00	87.2	87.2	93.1	59	71.1	2	5	270	0.00	29.775 
13:05	87.0	87.0	92.7	59	70.9	2	4	248	0.00	29.775 
13:10	86.5	86.5	92.1	60	70.9	2	6	270	0.00	29.774 
13:15	86.5	86.5	92.1	60	70.9	2	4	248	0.00	29.773 
13:20	86.5	86.5	92.1	60	70.9	1	3	270	0.00	29.772 
13:25	86.5	86.5	92.8	62	71.9	1	2	248	0.00	29.772 
13:30	86.5	86.5	91.7	59	70.4	2	6	248	0.00	29.773 
13:35	86.5	86.5	92.5	61	71.4	2	4	248	0.00	29.771 
13:40	86.7	86.7	92.1	59	70.6	2	6	248	0.00	29.771 
13:45	86.7	86.7	92.1	59	70.6	2	7	270	0.00	29.768 
13:50	86.7	86.7	92.1	59	70.6	2	6	248	0.00	29.766 
13:55	86.5	86.5	92.5	61	71.4	1	4	248	0.00	29.764 
14:00	86.5	86.5	91.3	58	69.9	2	7	248	0.00	29.764 
14:05	86.5	86.5	92.1	60	70.9	2	5	248	0.00	29.763 
14:10	87.0	87.0	92.7	59	70.9	2	7	270	0.00	29.762 
14:15	87.6	87.6	94.7	61	72.5	2	9	270	0.00	29.758 
14:20	88.4	88.4	96.0	60	72.7	2	7	270	0.00	29.758 
14:25	88.6	88.6	95.5	58	71.9	2	9	248	0.00	29.756 
14:30	88.6	88.6	95.5	58	71.9	3	7	248	0.00	29.752 
14:35	88.2	88.2	95.6	60	72.5	2	6	270	0.00	29.748 
14:40	88.6	88.6	95.5	58	71.9	2	12	248	0.00	29.741 
14:45	88.8	88.8	96.4	59	72.6	2	6	270	0.00	29.742 
14:50	88.8	88.8	95.9	58	72.1	4	10	270	0.00	29.742 
14:55	88.6	88.6	94.6	56	70.9	4	11	270	0.00	29.743 
15:00	88.4	88.4	94.2	56	70.7	3	13	270	0.00	29.742 
15:05	88.4	88.4	94.2	56	70.7	3	7	270	0.00	29.738 
15:10	88.4	88.4	94.6	57	71.2	2	10	248	0.00	29.726 
15:15	88.6	88.6	94.1	55	70.3	3	10	270	0.00	29.721 
15:20	88.6	88.6	94.6	56	70.9	3	11	270	0.00	29.712 
15:25	88.6	88.6	94.1	55	70.3	4	9	270	0.00	29.710 
15:30	89.0	89.0	94.9	55	70.7	2	7	270	0.00	29.708 
15:35	89.0	89.0	95.4	56	71.2	3	8	270	0.00	29.700 
15:40	89.3	89.3	95.1	54	70.4	3	7	270	0.00	29.695 
15:45	89.5	89.5	95.9	55	71.2	2	7	248	0.00	29.694 
15:50	89.3	89.3	96.0	56	71.5	2	7	248	0.00	29.696 
15:55	88.8	88.8	95.4	57	71.6	2	7	315	0.00	29.701 
16:00	88.6	88.6	94.1	55	70.3	3	7	270	0.00	29.705 
16:05	88.4	88.4	94.2	56	70.7	2	6	270	0.00	29.701 
16:10	88.2	88.2	92.9	54	69.4	3	7	248	0.00	29.696 
16:15	87.8	87.8	93.8	58	71.1	3	9	270	0.00	29.696 
16:20	87.6	87.6	92.6	56	69.9	2	7	270	0.00	29.700 
16:25	87.6	87.6	93.0	57	70.4	1	7	248	0.00	29.695 
16:30	87.8	87.8	93.8	58	71.1	1	5	248	0.00	29.693 
16:35	87.6	87.6	93.0	57	70.4	1	4	248	0.00	29.698 
16:40	87.6	87.6	92.6	56	69.9	1	7	270	0.00	29.703 
16:45	87.4	87.4	92.6	57	70.3	2	7	248	0.00	29.708 
16:50	87.2	87.2	92.7	58	70.6	1	3	248	0.00	29.717 
16:55	85.7	85.7	91.2	62	71.1	3	11	292	0.00	29.728 
17:00	81.2	81.2	84.8	69	70.0	6	12	292	0.00	29.745 
17:05	77.9	77.9	80.1	77	70.1	3	10	315	0.00	29.746 
17:10	76.0	76.0	77.0	80	69.4	3	6	315	0.00	29.752 
17:15	75.3	75.3	75.6	83	69.8	2	4	270	0.02	29.755 
17:20	74.2	74.2	74.2	88	70.4	2	7	315	0.09	29.754 
17:25	73.7	73.7	73.7	92	71.2	2	9	315	0.13	29.759 
17:30	73.0	73.0	73.0	92	70.5	1	3	292	0.06	29.776 
17:35	73.0	73.0	73.0	93	70.8	0	2	292	0.17	29.786 
17:40	72.8	72.8	72.8	94	71.0	1	3	90	0.02	29.777 
17:45	72.8	72.8	72.8	94	71.0	0	1	90	0.05	29.768 
17:50	72.8	72.8	72.8	95	71.3	0	0	---	0.02	29.778 
17:55	73.0	73.0	73.0	96	71.8	0	1	90	0.03	29.798 
18:00	73.2	73.2	73.2	96	72.0	1	2	90	0.01	29.798 
18:05	73.0	73.0	73.0	96	71.8	1	5	90	0.01	29.790 
18:10	72.8	72.8	72.8	96	71.6	0	2	90	0.01	29.786 
18:15	73.0	73.0	73.0	96	71.8	0	1	90	0.01	29.777 
18:20	73.0	73.0	73.0	96	71.8	0	0	---	0.00	29.773 
18:25	73.0	73.0	73.0	96	71.8	0	0	---	0.00	29.780 
18:30	73.2	73.2	73.2	96	72.0	0	1	90	0.00	29.782 
18:35	73.2	73.2	73.2	96	72.0	0	0	---	0.00	29.781 
18:40	73.2	73.2	73.2	96	72.0	0	1	90	0.00	29.777 
18:45	73.2	73.2	73.2	96	72.0	0	0	---	0.00	29.769 
18:50	73.3	73.3	73.3	97	72.4	0	0	---	0.00	29.769 
18:55	73.3	73.3	73.3	97	72.4	0	1	90	0.00	29.781 
19:00	73.5	73.5	73.5	97	72.6	0	0	---	0.00	29.781 
19:05	73.5	73.5	73.5	97	72.6	0	1	90	0.00	29.789 
19:10	73.5	73.5	73.5	97	72.6	0	2	90	0.00	29.797 
19:15	73.5	73.5	73.5	97	72.6	0	1	90	0.00	29.796 
19:20	73.5	73.5	73.5	97	72.6	0	1	90	0.00	29.796 
19:25	73.5	73.5	73.5	97	72.6	0	1	90	0.00	29.793 
19:30	73.5	73.5	73.5	97	72.6	0	0	---	0.00	29.789 
19:35	73.5	73.5	73.5	97	72.6	0	0	---	0.00	29.789 
19:40	73.7	73.7	73.7	97	72.8	0	0	---	0.00	29.788 
19:45	73.7	73.7	73.7	97	72.8	0	0	---	0.01	29.793 
19:50	73.7	73.7	73.7	97	72.8	0	1	90	0.00	29.794 
19:55	73.7	73.7	73.7	97	72.8	0	1	90	0.00	29.797 
20:00	73.7	73.7	73.7	97	72.8	0	2	90	0.00	29.796 
20:05	73.5	73.5	73.5	97	72.6	0	2	90	0.00	29.791 
20:10	73.5	73.5	73.5	97	72.6	0	1	90	0.00	29.789 
20:15	73.5	73.5	73.5	97	72.6	0	1	90	0.00	29.784 
20:20	73.3	73.3	73.3	97	72.4	0	1	90	0.00	29.792 
20:25	73.3	73.3	73.3	97	72.4	0	0	---	0.00	29.795 
20:30	73.2	73.2	73.2	97	72.3	0	1	90	0.00	29.796 
20:35	73.2	73.2	73.2	97	72.3	0	1	90	0.00	29.795 
20:40	73.0	73.0	73.0	97	72.1	0	1	90	0.00	29.800 
20:45	73.0	73.0	73.0	97	72.1	0	1	90	0.00	29.805 
20:50	72.8	72.8	72.8	97	71.9	0	1	90	0.00	29.806 
20:55	72.8	72.8	72.8	97	71.9	0	2	90	0.00	29.810 
21:00	72.7	72.7	72.7	97	71.8	1	2	90	0.00	29.813 
21:05	72.5	72.5	72.5	97	71.6	1	3	90	0.01	29.817 
21:10	72.3	72.3	72.3	97	71.4	1	3	248	0.00	29.819 
21:15	72.3	72.3	72.3	97	71.4	0	2	248	0.01	29.813 
21:20	72.3	72.3	72.3	97	71.4	0	3	248	0.01	29.813 
21:25	72.1	72.1	72.1	97	71.2	0	2	270	0.00	29.817 
21:30	72.1	72.1	72.1	97	71.2	0	2	270	0.01	29.814 
21:35	72.1	72.1	72.1	97	71.2	0	3	270	0.01	29.810 
21:40	72.1	72.1	72.1	97	71.2	0	1	270	0.01	29.807 
21:45	72.1	72.1	72.1	97	71.2	0	1	270	0.00	29.806 
21:50	72.1	72.1	72.1	97	71.2	0	1	270	0.00	29.795 
21:55	72.1	72.1	72.1	97	71.2	0	1	270	0.01	29.791 
22:00	72.1	72.1	72.1	97	71.2	0	1	270	0.00	29.791 
22:05	72.0	72.0	72.0	97	71.1	0	1	270	0.00	29.789 
22:10	72.0	72.0	72.0	97	71.1	0	1	270	0.00	29.791 
22:15	72.0	72.0	72.0	97	71.1	0	1	270	0.00	29.793 
22:20	72.0	72.0	72.0	97	71.1	0	1	270	0.00	29.796 
22:25	72.0	72.0	72.0	97	71.1	0	1	270	0.00	29.791 
22:30	72.0	72.0	72.0	97	71.1	0	1	270	0.00	29.788 
22:35	72.0	72.0	72.0	97	71.1	0	0	---	0.00	29.789 
22:40	72.0	72.0	72.0	97	71.1	0	0	---	0.00	29.784 
22:45	72.0	72.0	72.0	98	71.4	0	1	270	0.00	29.785 
22:50	72.0	72.0	72.0	98	71.4	0	0	---	0.00	29.787 
22:55	72.0	72.0	72.0	98	71.4	0	2	270	0.00	29.789 
23:00	72.0	72.0	72.0	98	71.4	0	0	---	0.00	29.785 
23:05	72.0	72.0	72.0	98	71.4	0	1	270	0.00	29.789 
23:10	72.0	72.0	72.0	98	71.4	0	1	270	0.00	29.794 
23:15	72.0	72.0	72.0	98	71.4	0	2	270	0.00	29.804 
23:20	72.1	72.1	72.1	98	71.5	1	4	248	0.00	29.809 
23:25	72.1	72.1	72.1	98	71.5	1	4	248	0.00	29.814 
23:30	72.1	72.1	72.1	98	71.5	1	3	248	0.01	29.812 
23:35	72.3	72.3	72.3	98	71.7	0	1	248	0.00	29.811 
23:40	72.1	72.1	72.1	98	71.5	1	3	292	0.01	29.811 
23:45	72.1	72.1	72.1	98	71.5	0	2	270	0.01	29.807 
23:50	72.0	72.0	72.0	98	71.4	1	4	248	0.00	29.806 
23:55	71.6	71.6	71.6	98	71.0	1	4	248	0.00	29.804 

CoCoRaHS
IN-AL-39
A2 Web Hosting
Creative Commons License
GoDaddy
Look for:

loaded 2017-10-17 00:18:35 • last modified 2010-11-18 10:43:29
Privacy PolicyDisclaimer
• wx.awcolley.com is powered by PmWiki v.2002016 •
• all content (unless otherwise noted) © 2017 A W Colley